메인 페이지
METAR-TAF:

METAR-TAF

공항 :

리즈, 잉글랜드

위도: 53-52N, 경도: 001-39W, 고도: 208m

현재 날씨관측

예보는 28분 전, 16:20시(UTC)에 발표되었습니다.
9kt
온도 16°C
습도 55%
기압 997 hPa
시정 10km 이상
고도 3200ft 상공 구름 보통

METAR: EGNM 141620Z 26009KT 9999 SCT032 16/07 Q0997

시각: 17:48 (16:48 UTC)

예보

예보는 5 시간 52분 전, 10:56시(UTC)에 발표되었습니다.
예보 대상 시간: 14일 12시부터 15일 12시까지 (UTC)
서남서9kt
시정 10km 이상
고도 2500ft 상공 구름 보통
일시적
14일 12시부터 15일 03시까지 (UTC)
시정: 6000m
소나기
확률 30% :
일시적
14일 12시부터 14일 21시까지 (UTC)
시정: 4000m
강한소나기
일시적
15일 09시부터 15일 12시까지 (UTC)
시정: 6000m
소나기
확률 40% :
일시적
15일 10시부터 15일 12시까지 (UTC)
시정: 4000m
고도 1400ft 상공 구름 많음
고도 2500ft 상공 구름 많음, 적란운.
강한소나기,

TAF: EGNM 141056Z 1412/1512 25009KT 9999 SCT025 TEMPO 1412/1503 6000 SHRA PROB30 TEMPO 1412/1421 4000 +SHRA TEMPO 1509/1512 6000 SHRA PROB40 TEMPO 1510/1512 4000 +SHRA BKN014 BKN025CB

4,000개 이상의 공항 관측 자료 및 예보 (METAR 및 TAF 보고).

지도상에서 검색 가능한 기상관측소가 노란 점과 빨간 점으로 표시되어 있습니다.

기상관측소 명을 보려면 표시 위로 마우스를 이동하세요.

날씨 관측과 예보를 보려면 클릭하세요.

지도 변경 : 확대하려면 엑스 표시가 있는 녹색 버튼, 축소하려면 빼기 표시가 있는 녹색 버튼, 다음 페이지의 지도를 보려면 녹색 화살표를 클릭하세요.


METAR-TAF: